<?xml version="1.0" encoding="UTF-8"?>
<gpx creator="Astro 320" version="1.1" schemaLocation="http://www.topografix.com/GPX/1/1 http://www.topografix.com/GPX/1/1/gpx.xsd http://www.garmin.com/xmlschemas/GpxExtensions/v3 http://www8.garmin.com/xmlschemas/GpxExtensionsv3.xsd http://www.garmin.com/xmlschemas/WaypointExtension/v1 http://www8.garmin.com/xmlschemas/WaypointExtensionv1.xsd http://www.garmin.com/xmlschemas/TrackPointExtension/v1 http://www.garmin.com/xmlschemas/TrackPointExtensionv1.xsd" xmlns="http://www.topografix.com/GPX/1/1" xmlns:xsi="http://www.w3.org/2001/XMLSchema-instance" xsi:schemaLocation="http://www.topografix.com/GPX/1/1 http://www.topografix.com/GPX/1/1/gpx.xsd http://www.garmin.com/xmlschemas/GpxExtensions/v3 http://www.garmin.com/xmlschemas/GpxExtensionsv3.xsd http://www.garmin.com/xmlschemas/TrackPointExtension/v1 http://www.garmin.com/xmlschemas/TrackPointExtensionv1.xsd http://www.garmin.com/xmlschemas/PowerExtension/v1 http://www.garmin.com/xmlschemas/PowerExtensionv1.xsd http://www.topografix.com/GPX/gpx_style/0/2 http://www.topografix.com/GPX/gpx_style/0/2/gpx_style.xsd" xmlns:gpxtpx="http://www.garmin.com/xmlschemas/TrackPointExtension/v1" xmlns:gpxx="http://www.garmin.com/xmlschemas/GpxExtensions/v3" xmlns:gpxpx="http://www.garmin.com/xmlschemas/PowerExtension/v1" xmlns:gpx_style="http://www.topografix.com/GPX/gpx_style/0/2">
  <metadata>
    <name>Просел. дор._2026-05-04 231333</name>
    <author>
      <name>gpx.studio</name>
      <link href="https://gpx.studio"/>
    </author>
    <link href="http://www.garmin.com">
      <text>Garmin International</text>
    </link>
    <time>2026-05-04T20:13:39.000Z</time>
  </metadata>
  <trk>
    <name>2026-05-04 23:13:33</name>
    <trkseg>
      <trkpt lat="59.736304516" lon="30.8443619683">
        <ele>38.59</ele>
        <time>2026-05-02T22:45:27.000Z</time>
      </trkpt>
      <trkpt lat="59.7363149095" lon="30.8443349786">
        <ele>38.59</ele>
        <time>2026-05-02T22:45:38.000Z</time>
      </trkpt>
      <trkpt lat="59.7363104671" lon="30.8443258423">
        <ele>38.59</ele>
        <time>2026-05-02T22:45:49.000Z</time>
      </trkpt>
      <trkpt lat="59.7363098804" lon="30.8443142753">
        <ele>38.59</ele>
        <time>2026-05-02T22:45:58.000Z</time>
      </trkpt>
      <trkpt lat="59.7363233753" lon="30.8442924824">
        <ele>38.59</ele>
        <time>2026-05-02T22:46:06.000Z</time>
      </trkpt>
      <trkpt lat="59.7363200225" lon="30.8442590386">
        <ele>38.59</ele>
        <time>2026-05-02T22:46:18.000Z</time>
      </trkpt>
      <trkpt lat="59.7363105509" lon="30.8442706894">
        <ele>38.59</ele>
        <time>2026-05-02T22:46:25.000Z</time>
      </trkpt>
      <trkpt lat="59.7363140713" lon="30.844282005">
        <ele>38.59</ele>
        <time>2026-05-02T22:46:34.000Z</time>
      </trkpt>
      <trkpt lat="59.7363271471" lon="30.8443088271">
        <ele>37.63</ele>
        <time>2026-05-02T22:46:49.000Z</time>
      </trkpt>
      <trkpt lat="59.7364651971" lon="30.8442464657">
        <ele>37.63</ele>
        <time>2026-05-02T22:47:07.000Z</time>
      </trkpt>
      <trkpt lat="59.7364685498" lon="30.8442654088">
        <ele>37.63</ele>
        <time>2026-05-02T22:47:16.000Z</time>
      </trkpt>
      <trkpt lat="59.7364656162" lon="30.8442773949">
        <ele>38.11</ele>
        <time>2026-05-02T22:47:28.000Z</time>
      </trkpt>
      <trkpt lat="59.7364651971" lon="30.844276892">
        <ele>38.59</ele>
        <time>2026-05-02T22:47:37.000Z</time>
      </trkpt>
      <trkpt lat="59.7364619281" lon="30.8442843519">
        <ele>38.59</ele>
        <time>2026-05-02T22:47:48.000Z</time>
      </trkpt>
      <trkpt lat="59.7364546359" lon="30.8442923147">
        <ele>38.59</ele>
        <time>2026-05-02T22:47:58.000Z</time>
      </trkpt>
      <trkpt lat="59.7364534624" lon="30.8442613855">
        <ele>38.59</ele>
        <time>2026-05-02T22:48:07.000Z</time>
      </trkpt>
      <trkpt lat="59.7364532109" lon="30.8442596253">
        <ele>38.59</ele>
        <time>2026-05-02T22:48:19.000Z</time>
      </trkpt>
      <trkpt lat="59.7364682145" lon="30.8443169575">
        <ele>38.59</ele>
        <time>2026-05-02T22:48:36.000Z</time>
      </trkpt>
      <trkpt lat="59.7364748362" lon="30.8443281054">
        <ele>38.59</ele>
        <time>2026-05-02T22:48:48.000Z</time>
      </trkpt>
      <trkpt lat="59.7364706453" lon="30.8443302847">
        <ele>38.59</ele>
        <time>2026-05-02T22:49:01.000Z</time>
      </trkpt>
      <trkpt lat="59.7364829667" lon="30.8443471324">
        <ele>38.59</ele>
        <time>2026-05-02T22:49:18.000Z</time>
      </trkpt>
      <trkpt lat="59.7364933603" lon="30.8443520777">
        <ele>39.07</ele>
        <time>2026-05-02T22:49:31.000Z</time>
      </trkpt>
      <trkpt lat="59.7365049273" lon="30.8443632256">
        <ele>39.07</ele>
        <time>2026-05-02T22:49:41.000Z</time>
      </trkpt>
      <trkpt lat="59.7365119681" lon="30.8443754632">
        <ele>39.07</ele>
        <time>2026-05-02T22:49:50.000Z</time>
      </trkpt>
      <trkpt lat="59.7365248762" lon="30.8443877846">
        <ele>39.07</ele>
        <time>2026-05-02T22:49:59.000Z</time>
      </trkpt>
      <trkpt lat="59.7365359403" lon="30.8443784807">
        <ele>39.07</ele>
        <time>2026-05-02T22:50:05.000Z</time>
      </trkpt>
      <trkpt lat="59.7365382034" lon="30.8443820011">
        <ele>39.07</ele>
        <time>2026-05-02T22:50:14.000Z</time>
      </trkpt>
      <trkpt lat="59.7365419753" lon="30.8443918917">
        <ele>38.59</ele>
        <time>2026-05-02T22:50:23.000Z</time>
      </trkpt>
      <trkpt lat="59.7365443222" lon="30.8443979267">
        <ele>38.59</ele>
        <time>2026-05-02T22:50:31.000Z</time>
      </trkpt>
      <trkpt lat="59.7365516145" lon="30.8443965856">
        <ele>38.59</ele>
        <time>2026-05-02T22:50:37.000Z</time>
      </trkpt>
      <trkpt lat="59.7365823761" lon="30.8443832584">
        <ele>38.59</ele>
        <time>2026-05-02T22:50:44.000Z</time>
      </trkpt>
      <trkpt lat="59.7366262972" lon="30.8443075698">
        <ele>38.59</ele>
        <time>2026-05-02T22:50:52.000Z</time>
      </trkpt>
      <trkpt lat="59.7380874306" lon="30.8430807944">
        <ele>40.51</ele>
        <time>2026-05-02T22:55:02.000Z</time>
      </trkpt>
      <trkpt lat="59.7380842455" lon="30.8431064431">
        <ele>40.51</ele>
        <time>2026-05-02T22:55:03.000Z</time>
      </trkpt>
      <trkpt lat="59.7380905319" lon="30.8430677187">
        <ele>38.11</ele>
        <time>2026-05-02T22:55:09.000Z</time>
      </trkpt>
      <trkpt lat="59.7381570842" lon="30.8431227878">
        <ele>38.11</ele>
        <time>2026-05-02T22:55:17.000Z</time>
      </trkpt>
      <trkpt lat="59.7381906118" lon="30.8431070298">
        <ele>38.11</ele>
        <time>2026-05-02T22:55:24.000Z</time>
      </trkpt>
      <trkpt lat="59.7382409871" lon="30.8430751786">
        <ele>38.11</ele>
        <time>2026-05-02T22:55:32.000Z</time>
      </trkpt>
      <trkpt lat="59.7383062821" lon="30.8430171758">
        <ele>38.11</ele>
        <time>2026-05-02T22:55:41.000Z</time>
      </trkpt>
      <trkpt lat="59.7383820545" lon="30.842974931">
        <ele>38.11</ele>
        <time>2026-05-02T22:55:50.000Z</time>
      </trkpt>
      <trkpt lat="59.7384714894" lon="30.8429187723">
        <ele>38.11</ele>
        <time>2026-05-02T22:55:56.000Z</time>
      </trkpt>
      <trkpt lat="59.7385085374" lon="30.8428482804">
        <ele>38.59</ele>
        <time>2026-05-02T22:56:04.000Z</time>
      </trkpt>
      <trkpt lat="59.7385506146" lon="30.8427917026">
        <ele>38.59</ele>
        <time>2026-05-02T22:56:13.000Z</time>
      </trkpt>
      <trkpt lat="59.7385553923" lon="30.8427534811">
        <ele>38.59</ele>
        <time>2026-05-02T22:56:27.000Z</time>
      </trkpt>
      <trkpt lat="59.7385989781" lon="30.8427766152">
        <ele>39.07</ele>
        <time>2026-05-02T22:56:36.000Z</time>
      </trkpt>
      <trkpt lat="59.7386127245" lon="30.8428031858">
        <ele>39.07</ele>
        <time>2026-05-02T22:56:46.000Z</time>
      </trkpt>
      <trkpt lat="59.7386215255" lon="30.8427917026">
        <ele>39.07</ele>
        <time>2026-05-02T22:57:00.000Z</time>
      </trkpt>
      <trkpt lat="59.738703249" lon="30.8428620268">
        <ele>39.07</ele>
        <time>2026-05-02T22:57:07.000Z</time>
      </trkpt>
      <trkpt lat="59.7387849726" lon="30.8429954667">
        <ele>39.07</ele>
        <time>2026-05-02T22:57:18.000Z</time>
      </trkpt>
      <trkpt lat="59.7388752457" lon="30.8431351092">
        <ele>39.55</ele>
        <time>2026-05-02T22:57:27.000Z</time>
      </trkpt>
      <trkpt lat="59.7388956975" lon="30.8432776015">
        <ele>39.55</ele>
        <time>2026-05-02T22:57:35.000Z</time>
      </trkpt>
      <trkpt lat="59.7389518563" lon="30.8433282282">
        <ele>39.55</ele>
        <time>2026-05-02T22:57:45.000Z</time>
      </trkpt>
      <trkpt lat="59.7389977891" lon="30.8434070181">
        <ele>39.55</ele>
        <time>2026-05-02T22:57:53.000Z</time>
      </trkpt>
      <trkpt lat="59.7390185762" lon="30.8434774261">
        <ele>39.55</ele>
        <time>2026-05-02T22:58:03.000Z</time>
      </trkpt>
      <trkpt lat="59.7391034011" lon="30.8435977064">
        <ele>39.55</ele>
        <time>2026-05-02T22:58:11.000Z</time>
      </trkpt>
      <trkpt lat="59.7391908243" lon="30.843714131">
        <ele>39.55</ele>
        <time>2026-05-02T22:58:20.000Z</time>
      </trkpt>
      <trkpt lat="59.7392400261" lon="30.843762327">
        <ele>39.55</ele>
        <time>2026-05-02T22:58:26.000Z</time>
      </trkpt>
      <trkpt lat="59.7393054049" lon="30.8438397758">
        <ele>39.07</ele>
        <time>2026-05-02T22:58:34.000Z</time>
      </trkpt>
      <trkpt lat="59.7393296286" lon="30.84386006">
        <ele>39.07</ele>
        <time>2026-05-02T22:58:40.000Z</time>
      </trkpt>
      <trkpt lat="59.7393739689" lon="30.8438677713">
        <ele>39.07</ele>
        <time>2026-05-02T22:58:49.000Z</time>
      </trkpt>
      <trkpt lat="59.739432307" lon="30.8438803442">
        <ele>39.07</ele>
        <time>2026-05-02T22:58:57.000Z</time>
      </trkpt>
      <trkpt lat="59.7395169642" lon="30.8439411968">
        <ele>39.07</ele>
        <time>2026-05-02T22:59:04.000Z</time>
      </trkpt>
      <trkpt lat="59.739538338" lon="30.843954524">
        <ele>39.07</ele>
        <time>2026-05-02T22:59:07.000Z</time>
      </trkpt>
      <trkpt lat="59.7396418545" lon="30.8440266084">
        <ele>38.59</ele>
        <time>2026-05-02T22:59:14.000Z</time>
      </trkpt>
      <trkpt lat="59.7396717779" lon="30.844045803">
        <ele>38.59</ele>
        <time>2026-05-02T22:59:16.000Z</time>
      </trkpt>
      <trkpt lat="59.7397774737" lon="30.8441526722">
        <ele>38.59</ele>
        <time>2026-05-02T22:59:24.000Z</time>
      </trkpt>
      <trkpt lat="59.7398297768" lon="30.8442753833">
        <ele>38.59</ele>
        <time>2026-05-02T22:59:31.000Z</time>
      </trkpt>
      <trkpt lat="59.7399127577" lon="30.8445094898">
        <ele>38.59</ele>
        <time>2026-05-02T22:59:39.000Z</time>
      </trkpt>
      <trkpt lat="59.7399285156" lon="30.844580736">
        <ele>38.11</ele>
        <time>2026-05-02T22:59:48.000Z</time>
      </trkpt>
      <trkpt lat="59.7399372328" lon="30.8446297701">
        <ele>38.11</ele>
        <time>2026-05-02T22:59:56.000Z</time>
      </trkpt>
      <trkpt lat="59.73994595" lon="30.8446895331">
        <ele>38.11</ele>
        <time>2026-05-02T23:00:07.000Z</time>
      </trkpt>
      <trkpt lat="59.7399210557" lon="30.8447808959">
        <ele>38.11</ele>
        <time>2026-05-02T23:00:27.000Z</time>
      </trkpt>
      <trkpt lat="59.7399435192" lon="30.8448265772">
        <ele>38.11</ele>
        <time>2026-05-02T23:00:37.000Z</time>
      </trkpt>
      <trkpt lat="59.7400230635" lon="30.8450217918">
        <ele>37.63</ele>
        <time>2026-05-02T23:00:45.000Z</time>
      </trkpt>
      <trkpt lat="59.7400938068" lon="30.8452004939">
        <ele>37.63</ele>
        <time>2026-05-02T23:00:52.000Z</time>
      </trkpt>
      <trkpt lat="59.7401446849" lon="30.8453133982">
        <ele>37.63</ele>
        <time>2026-05-02T23:00:59.000Z</time>
      </trkpt>
      <trkpt lat="59.7401853371" lon="30.8454587404">
        <ele>37.63</ele>
        <time>2026-05-02T23:01:07.000Z</time>
      </trkpt>
      <trkpt lat="59.7401907854" lon="30.8455361892">
        <ele>37.63</ele>
        <time>2026-05-02T23:01:14.000Z</time>
      </trkpt>
      <trkpt lat="59.7402125783" lon="30.8456205111">
        <ele>37.63</ele>
        <time>2026-05-02T23:01:21.000Z</time>
      </trkpt>
      <trkpt lat="59.7402451001" lon="30.8457437251">
        <ele>37.63</ele>
        <time>2026-05-02T23:01:27.000Z</time>
      </trkpt>
      <trkpt lat="59.7402654681" lon="30.8459220082">
        <ele>37.63</ele>
        <time>2026-05-02T23:01:34.000Z</time>
      </trkpt>
      <trkpt lat="59.740301678" lon="30.8460370079">
        <ele>37.15</ele>
        <time>2026-05-02T23:01:41.000Z</time>
      </trkpt>
      <trkpt lat="59.7403184418" lon="30.846130969">
        <ele>37.15</ele>
        <time>2026-05-02T23:01:47.000Z</time>
      </trkpt>
      <trkpt lat="59.7403481137" lon="30.8462370001">
        <ele>37.15</ele>
        <time>2026-05-02T23:01:56.000Z</time>
      </trkpt>
      <trkpt lat="59.7403756063" lon="30.8463730384">
        <ele>37.15</ele>
        <time>2026-05-02T23:02:02.000Z</time>
      </trkpt>
      <trkpt lat="59.7404209524" lon="30.8465011138">
        <ele>37.15</ele>
        <time>2026-05-02T23:02:09.000Z</time>
      </trkpt>
      <trkpt lat="59.7404999938" lon="30.8466457855">
        <ele>37.15</ele>
        <time>2026-05-02T23:02:17.000Z</time>
      </trkpt>
      <trkpt lat="59.7405512072" lon="30.8467723522">
        <ele>35.71</ele>
        <time>2026-05-02T23:02:24.000Z</time>
      </trkpt>
      <trkpt lat="59.7405882552" lon="30.8468872681">
        <ele>35.71</ele>
        <time>2026-05-02T23:02:30.000Z</time>
      </trkpt>
      <trkpt lat="59.7406118922" lon="30.8469551615">
        <ele>35.71</ele>
        <time>2026-05-02T23:02:37.000Z</time>
      </trkpt>
      <trkpt lat="59.7406363674" lon="30.8470164333">
        <ele>35.71</ele>
        <time>2026-05-02T23:02:46.000Z</time>
      </trkpt>
      <trkpt lat="59.740694873" lon="30.8471814729">
        <ele>35.23</ele>
        <time>2026-05-02T23:02:54.000Z</time>
      </trkpt>
      <trkpt lat="59.7407523729" lon="30.8473413996">
        <ele>35.23</ele>
        <time>2026-05-02T23:03:02.000Z</time>
      </trkpt>
      <trkpt lat="59.740777351" lon="30.8474118076">
        <ele>35.23</ele>
        <time>2026-05-02T23:03:11.000Z</time>
      </trkpt>
      <trkpt lat="59.7408532072" lon="30.8475119714">
        <ele>35.23</ele>
        <time>2026-05-02T23:03:21.000Z</time>
      </trkpt>
      <trkpt lat="59.740876006" lon="30.8475338481">
        <ele>34.74</ele>
        <time>2026-05-02T23:03:30.000Z</time>
      </trkpt>
      <trkpt lat="59.7409199271" lon="30.8475921024">
        <ele>34.74</ele>
        <time>2026-05-02T23:03:35.000Z</time>
      </trkpt>
      <trkpt lat="59.7409934364" lon="30.8476866502">
        <ele>34.74</ele>
        <time>2026-05-02T23:03:43.000Z</time>
      </trkpt>
      <trkpt lat="59.7410782613" lon="30.8478345908">
        <ele>34.74</ele>
        <time>2026-05-02T23:03:52.000Z</time>
      </trkpt>
      <trkpt lat="59.7410945222" lon="30.8478935994">
        <ele>34.74</ele>
        <time>2026-05-02T23:03:57.000Z</time>
      </trkpt>
      <trkpt lat="59.741110364" lon="30.8479396999">
        <ele>34.26</ele>
        <time>2026-05-02T23:04:06.000Z</time>
      </trkpt>
      <trkpt lat="59.7411373537" lon="30.8480065875">
        <ele>34.26</ele>
        <time>2026-05-02T23:04:12.000Z</time>
      </trkpt>
      <trkpt lat="59.7411993798" lon="30.8480821922">
        <ele>34.26</ele>
        <time>2026-05-02T23:04:19.000Z</time>
      </trkpt>
      <trkpt lat="59.7412302252" lon="30.8481427934">
        <ele>33.78</ele>
        <time>2026-05-02T23:04:28.000Z</time>
      </trkpt>
      <trkpt lat="59.7412622441" lon="30.8482076693">
        <ele>33.78</ele>
        <time>2026-05-02T23:04:36.000Z</time>
      </trkpt>
      <trkpt lat="59.7412825283" lon="30.8482785802">
        <ele>33.78</ele>
        <time>2026-05-02T23:04:44.000Z</time>
      </trkpt>
      <trkpt lat="59.7413001303" lon="30.8483735472">
        <ele>33.78</ele>
        <time>2026-05-02T23:04:51.000Z</time>
      </trkpt>
      <trkpt lat="59.741341034" lon="30.848466251">
        <ele>33.78</ele>
        <time>2026-05-02T23:04:59.000Z</time>
      </trkpt>
      <trkpt lat="59.7413706221" lon="30.8485888783">
        <ele>33.78</ele>
        <time>2026-05-02T23:05:07.000Z</time>
      </trkpt>
      <trkpt lat="59.7414650023" lon="30.8488293551">
        <ele>33.3</ele>
        <time>2026-05-02T23:05:21.000Z</time>
      </trkpt>
      <trkpt lat="59.7415181436" lon="30.8489824086">
        <ele>33.3</ele>
        <time>2026-05-02T23:05:30.000Z</time>
      </trkpt>
      <trkpt lat="59.7415570356" lon="30.8491030242">
        <ele>33.3</ele>
        <time>2026-05-02T23:05:38.000Z</time>
      </trkpt>
      <trkpt lat="59.741564244" lon="30.849193465">
        <ele>33.3</ele>
        <time>2026-05-02T23:05:45.000Z</time>
      </trkpt>
      <trkpt lat="59.7415980231" lon="30.8493287489">
        <ele>33.3</ele>
        <time>2026-05-02T23:05:53.000Z</time>
      </trkpt>
      <trkpt lat="59.7416243423" lon="30.8493939601">
        <ele>32.82</ele>
        <time>2026-05-02T23:06:02.000Z</time>
      </trkpt>
      <trkpt lat="59.7416345682" lon="30.8494446706">
        <ele>32.82</ele>
        <time>2026-05-02T23:06:10.000Z</time>
      </trkpt>
      <trkpt lat="59.7416524217" lon="30.849507032">
        <ele>32.82</ele>
        <time>2026-05-02T23:06:22.000Z</time>
      </trkpt>
      <trkpt lat="59.741652254" lon="30.8495097142">
        <ele>32.82</ele>
        <time>2026-05-02T23:06:34.000Z</time>
      </trkpt>
      <trkpt lat="59.7416597977" lon="30.8494986501">
        <ele>32.82</ele>
        <time>2026-05-02T23:06:49.000Z</time>
      </trkpt>
      <trkpt lat="59.7416672576" lon="30.8494961355">
        <ele>32.82</ele>
        <time>2026-05-02T23:07:02.000Z</time>
      </trkpt>
      <trkpt lat="59.7416706942" lon="30.8495025057">
        <ele>32.82</ele>
        <time>2026-05-02T23:07:12.000Z</time>
      </trkpt>
      <trkpt lat="59.7416701913" lon="30.84950611">
        <ele>32.34</ele>
        <time>2026-05-02T23:07:23.000Z</time>
      </trkpt>
      <trkpt lat="59.7416727897" lon="30.8495388832">
        <ele>32.34</ele>
        <time>2026-05-02T23:07:32.000Z</time>
      </trkpt>
      <trkpt lat="59.7416770644" lon="30.8495918568">
        <ele>32.34</ele>
        <time>2026-05-02T23:07:39.000Z</time>
      </trkpt>
      <trkpt lat="59.7416981868" lon="30.849733511">
        <ele>32.34</ele>
        <time>2026-05-02T23:07:45.000Z</time>
      </trkpt>
      <trkpt lat="59.7417075746" lon="30.8497662842">
        <ele>32.34</ele>
        <time>2026-05-02T23:07:47.000Z</time>
      </trkpt>
      <trkpt lat="59.7417512443" lon="30.8499747422">
        <ele>32.34</ele>
        <time>2026-05-02T23:07:54.000Z</time>
      </trkpt>
      <trkpt lat="59.7417662479" lon="30.8501231018">
        <ele>32.34</ele>
        <time>2026-05-02T23:07:59.000Z</time>
      </trkpt>
      <trkpt lat="59.7417763062" lon="30.8503290452">
        <ele>32.34</ele>
        <time>2026-05-02T23:08:07.000Z</time>
      </trkpt>
      <trkpt lat="59.7417837661" lon="30.8504385967">
        <ele>32.34</ele>
        <time>2026-05-02T23:08:13.000Z</time>
      </trkpt>
      <trkpt lat="59.7418022063" lon="30.8505633194">
        <ele>31.86</ele>
        <time>2026-05-02T23:08:19.000Z</time>
      </trkpt>
      <trkpt lat="59.7418245859" lon="30.8507127687">
        <ele>31.86</ele>
        <time>2026-05-02T23:08:26.000Z</time>
      </trkpt>
      <trkpt lat="59.7418272682" lon="30.8507715259">
        <ele>31.86</ele>
        <time>2026-05-02T23:08:33.000Z</time>
      </trkpt>
      <trkpt lat="59.7418399248" lon="30.8508517407">
        <ele>31.86</ele>
        <time>2026-05-02T23:08:42.000Z</time>
      </trkpt>
      <trkpt lat="59.741875045" lon="30.8509832527">
        <ele>31.86</ele>
        <time>2026-05-02T23:08:49.000Z</time>
      </trkpt>
      <trkpt lat="59.7419150267" lon="30.8512719255">
        <ele>31.38</ele>
        <time>2026-05-02T23:08:59.000Z</time>
      </trkpt>
      <trkpt lat="59.7419538349" lon="30.8514032699">
        <ele>31.38</ele>
        <time>2026-05-02T23:09:05.000Z</time>
      </trkpt>
      <trkpt lat="59.7419985104" lon="30.8515818883">
        <ele>31.38</ele>
        <time>2026-05-02T23:09:14.000Z</time>
      </trkpt>
      <trkpt lat="59.7420409229" lon="30.8517560642">
        <ele>31.38</ele>
        <time>2026-05-02T23:09:21.000Z</time>
      </trkpt>
      <trkpt lat="59.7420653142" lon="30.851853881">
        <ele>31.38</ele>
        <time>2026-05-02T23:09:28.000Z</time>
      </trkpt>
      <trkpt lat="59.7420892864" lon="30.8520348463">
        <ele>30.9</ele>
        <time>2026-05-02T23:09:37.000Z</time>
      </trkpt>
      <trkpt lat="59.7421000991" lon="30.8521006443">
        <ele>30.9</ele>
        <time>2026-05-02T23:09:46.000Z</time>
      </trkpt>
      <trkpt lat="59.7421083972" lon="30.8521048352">
        <ele>30.9</ele>
        <time>2026-05-02T23:09:54.000Z</time>
      </trkpt>
      <trkpt lat="59.7421070561" lon="30.8520796895">
        <ele>30.9</ele>
        <time>2026-05-02T23:10:02.000Z</time>
      </trkpt>
      <trkpt lat="59.7420690022" lon="30.8520612493">
        <ele>30.9</ele>
        <time>2026-05-02T23:10:08.000Z</time>
      </trkpt>
      <trkpt lat="59.7420748696" lon="30.852066027">
        <ele>30.42</ele>
        <time>2026-05-02T23:10:22.000Z</time>
      </trkpt>
      <trkpt lat="59.7420603689" lon="30.8520842157">
        <ele>30.42</ele>
        <time>2026-05-02T23:10:33.000Z</time>
      </trkpt>
      <trkpt lat="59.7420572676" lon="30.8521002252">
        <ele>30.42</ele>
        <time>2026-05-02T23:10:50.000Z</time>
      </trkpt>
      <trkpt lat="59.7420464549" lon="30.8520889096">
        <ele>29.94</ele>
        <time>2026-05-02T23:11:12.000Z</time>
      </trkpt>
      <trkpt lat="59.7420427669" lon="30.8520830423">
        <ele>29.94</ele>
        <time>2026-05-02T23:11:29.000Z</time>
      </trkpt>
      <trkpt lat="59.7420341335" lon="30.8520925976">
        <ele>29.94</ele>
        <time>2026-05-02T23:11:49.000Z</time>
      </trkpt>
      <trkpt lat="59.7420420125" lon="30.8520802762">
        <ele>29.94</ele>
        <time>2026-05-02T23:11:57.000Z</time>
      </trkpt>
      <trkpt lat="59.742055675" lon="30.8520727325">
        <ele>29.94</ele>
        <time>2026-05-02T23:12:04.000Z</time>
      </trkpt>
      <trkpt lat="59.742055675" lon="30.8520463295">
        <ele>29.94</ele>
        <time>2026-05-02T23:12:07.000Z</time>
      </trkpt>
      <trkpt lat="59.7420938965" lon="30.8518945333">
        <ele>29.46</ele>
        <time>2026-05-02T23:12:14.000Z</time>
      </trkpt>
      <trkpt lat="59.7420957405" lon="30.8517523762">
        <ele>29.46</ele>
        <time>2026-05-02T23:12:20.000Z</time>
      </trkpt>
      <trkpt lat="59.74206171" lon="30.851562107">
        <ele>29.46</ele>
        <time>2026-05-02T23:12:26.000Z</time>
      </trkpt>
      <trkpt lat="59.7420108318" lon="30.8513203729">
        <ele>29.46</ele>
        <time>2026-05-02T23:12:34.000Z</time>
      </trkpt>
      <trkpt lat="59.7419947386" lon="30.8511941414">
        <ele>29.46</ele>
        <time>2026-05-02T23:12:40.000Z</time>
      </trkpt>
      <trkpt lat="59.7419648152" lon="30.8510975819">
        <ele>29.46</ele>
        <time>2026-05-02T23:12:45.000Z</time>
      </trkpt>
      <trkpt lat="59.7419307847" lon="30.8509977534">
        <ele>29.46</ele>
        <time>2026-05-02T23:12:52.000Z</time>
      </trkpt>
      <trkpt lat="59.741912093" lon="30.8508125134">
        <ele>29.46</ele>
        <time>2026-05-02T23:12:59.000Z</time>
      </trkpt>
      <trkpt lat="59.7418799903" lon="30.8506259322">
        <ele>29.46</ele>
        <time>2026-05-02T23:13:07.000Z</time>
      </trkpt>
      <trkpt lat="59.7418635618" lon="30.8505142014">
        <ele>29.46</ele>
        <time>2026-05-02T23:13:14.000Z</time>
      </trkpt>
      <trkpt lat="59.7418475524" lon="30.8504067454">
        <ele>28.98</ele>
        <time>2026-05-02T23:13:22.000Z</time>
      </trkpt>
      <trkpt lat="59.7418265976" lon="30.850258721">
        <ele>28.98</ele>
        <time>2026-05-02T23:13:30.000Z</time>
      </trkpt>
      <trkpt lat="59.7418003622" lon="30.8500695415">
        <ele>28.98</ele>
        <time>2026-05-02T23:13:36.000Z</time>
      </trkpt>
      <trkpt lat="59.7417856939" lon="30.8499243669">
        <ele>28.98</ele>
        <time>2026-05-02T23:13:43.000Z</time>
      </trkpt>
      <trkpt lat="59.7417566087" lon="30.8497683797">
        <ele>28.98</ele>
        <time>2026-05-02T23:13:51.000Z</time>
      </trkpt>
      <trkpt lat="59.7417367436" lon="30.8497039229">
        <ele>28.98</ele>
        <time>2026-05-02T23:13:58.000Z</time>
      </trkpt>
      <trkpt lat="59.741727775" lon="30.8496588282">
        <ele>28.98</ele>
        <time>2026-05-02T23:14:06.000Z</time>
      </trkpt>
      <trkpt lat="59.7417024616" lon="30.8495606761">
        <ele>28.5</ele>
        <time>2026-05-02T23:14:13.000Z</time>
      </trkpt>
      <trkpt lat="59.7416495718" lon="30.8494113106">
        <ele>28.5</ele>
        <time>2026-05-02T23:14:20.000Z</time>
      </trkpt>
      <trkpt lat="59.7416099254" lon="30.8493025135">
        <ele>28.5</ele>
        <time>2026-05-02T23:14:26.000Z</time>
      </trkpt>
      <trkpt lat="59.7415812593" lon="30.8491722587">
        <ele>28.5</ele>
        <time>2026-05-02T23:14:33.000Z</time>
      </trkpt>
      <trkpt lat="59.7415478993" lon="30.8490153495">
        <ele>28.5</ele>
        <time>2026-05-02T23:14:41.000Z</time>
      </trkpt>
      <trkpt lat="59.7415107675" lon="30.8488856815">
        <ele>28.5</ele>
        <time>2026-05-02T23:14:47.000Z</time>
      </trkpt>
      <trkpt lat="59.7415015474" lon="30.8488515671">
        <ele>28.5</ele>
        <time>2026-05-02T23:14:49.000Z</time>
      </trkpt>
      <trkpt lat="59.7414613981" lon="30.8486829232">
        <ele>28.02</ele>
        <time>2026-05-02T23:14:56.000Z</time>
      </trkpt>
      <trkpt lat="59.7414017189" lon="30.8484991081">
        <ele>28.02</ele>
        <time>2026-05-02T23:15:04.000Z</time>
      </trkpt>
      <trkpt lat="59.7413559537" lon="30.8483658358">
        <ele>28.02</ele>
        <time>2026-05-02T23:15:11.000Z</time>
      </trkpt>
      <trkpt lat="59.7413140442" lon="30.8483069111">
        <ele>28.02</ele>
        <time>2026-05-02T23:15:17.000Z</time>
      </trkpt>
      <trkpt lat="59.7412904911" lon="30.8483285364">
        <ele>28.02</ele>
        <time>2026-05-02T23:15:23.000Z</time>
      </trkpt>
      <trkpt lat="59.7412584722" lon="30.8483256865">
        <ele>27.53</ele>
        <time>2026-05-02T23:15:31.000Z</time>
      </trkpt>
      <trkpt lat="59.7412387747" lon="30.8483653329">
        <ele>27.53</ele>
        <time>2026-05-02T23:15:50.000Z</time>
      </trkpt>
      <trkpt lat="59.7412238549" lon="30.8483538497">
        <ele>27.53</ele>
        <time>2026-05-02T23:16:05.000Z</time>
      </trkpt>
      <trkpt lat="59.7412037384" lon="30.8483603876">
        <ele>27.05</ele>
        <time>2026-05-02T23:16:18.000Z</time>
      </trkpt>
      <trkpt lat="59.7411954403" lon="30.8483376727">
        <ele>27.05</ele>
        <time>2026-05-02T23:16:37.000Z</time>
      </trkpt>
      <trkpt lat="59.741191417" lon="30.8483392652">
        <ele>27.05</ele>
        <time>2026-05-02T23:16:56.000Z</time>
      </trkpt>
      <trkpt lat="59.7411800176" lon="30.8483687695">
        <ele>27.05</ele>
        <time>2026-05-02T23:17:15.000Z</time>
      </trkpt>
      <trkpt lat="59.7411803529" lon="30.8483715355">
        <ele>27.05</ele>
        <time>2026-05-02T23:17:25.000Z</time>
      </trkpt>
      <trkpt lat="59.7411823645" lon="30.8483715355">
        <ele>27.05</ele>
        <time>2026-05-02T23:17:34.000Z</time>
      </trkpt>
      <trkpt lat="59.7411790118" lon="30.8483768161">
        <ele>27.05</ele>
        <time>2026-05-02T23:17:49.000Z</time>
      </trkpt>
      <trkpt lat="59.7411569674" lon="30.848406991">
        <ele>27.05</ele>
        <time>2026-05-02T23:18:05.000Z</time>
      </trkpt>
      <trkpt lat="59.7411550395" lon="30.8484183066">
        <ele>27.05</ele>
        <time>2026-05-02T23:18:16.000Z</time>
      </trkpt>
      <trkpt lat="59.7411528602" lon="30.8484161273">
        <ele>27.05</ele>
        <time>2026-05-02T23:18:33.000Z</time>
      </trkpt>
      <trkpt lat="59.7411530279" lon="30.8484758064">
        <ele>27.05</ele>
        <time>2026-05-02T23:18:42.000Z</time>
      </trkpt>
      <trkpt lat="59.7411385272" lon="30.8485092502">
        <ele>27.05</ele>
        <time>2026-05-02T23:18:48.000Z</time>
      </trkpt>
      <trkpt lat="59.7411388624" lon="30.8485484775">
        <ele>27.05</ele>
        <time>2026-05-02T23:18:54.000Z</time>
      </trkpt>
      <trkpt lat="59.7411198355" lon="30.8485908899">
        <ele>27.05</ele>
        <time>2026-05-02T23:19:02.000Z</time>
      </trkpt>
      <trkpt lat="59.7410991322" lon="30.8486117609">
        <ele>27.05</ele>
        <time>2026-05-02T23:19:04.000Z</time>
      </trkpt>
      <trkpt lat="59.7410406265" lon="30.8487001061">
        <ele>27.05</ele>
        <time>2026-05-02T23:19:11.000Z</time>
      </trkpt>
      <trkpt lat="59.7410198394" lon="30.8487950731">
        <ele>27.05</ele>
        <time>2026-05-02T23:19:18.000Z</time>
      </trkpt>
      <trkpt lat="59.7410146426" lon="30.8488213923">
        <ele>27.05</ele>
        <time>2026-05-02T23:19:30.000Z</time>
      </trkpt>
      <trkpt lat="59.7410173248" lon="30.8488128427">
        <ele>27.05</ele>
        <time>2026-05-02T23:19:36.000Z</time>
      </trkpt>
      <trkpt lat="59.7410160676" lon="30.8488228172">
        <ele>27.05</ele>
        <time>2026-05-02T23:19:44.000Z</time>
      </trkpt>
      <trkpt lat="59.741042722" lon="30.8488739468">
        <ele>27.05</ele>
        <time>2026-05-02T23:19:50.000Z</time>
      </trkpt>
      <trkpt lat="59.7410752438" lon="30.8489903715">
        <ele>27.05</ele>
        <time>2026-05-02T23:19:58.000Z</time>
      </trkpt>
      <trkpt lat="59.741059402" lon="30.8491275832">
        <ele>27.05</ele>
        <time>2026-05-02T23:20:06.000Z</time>
      </trkpt>
      <trkpt lat="59.7410512716" lon="30.8491518069">
        <ele>27.05</ele>
        <time>2026-05-02T23:20:09.000Z</time>
      </trkpt>
      <trkpt lat="59.7410881519" lon="30.8492424153">
        <ele>27.05</ele>
        <time>2026-05-02T23:20:16.000Z</time>
      </trkpt>
      <trkpt lat="59.7410890739" lon="30.849289773">
        <ele>27.05</ele>
        <time>2026-05-02T23:20:22.000Z</time>
      </trkpt>
      <trkpt lat="59.7410778422" lon="30.8493123204">
        <ele>27.53</ele>
        <time>2026-05-02T23:20:29.000Z</time>
      </trkpt>
      <trkpt lat="59.7410741542" lon="30.8493285812">
        <ele>27.53</ele>
        <time>2026-05-02T23:20:36.000Z</time>
      </trkpt>
      <trkpt lat="59.7410692926" lon="30.8493451774">
        <ele>27.53</ele>
        <time>2026-05-02T23:20:44.000Z</time>
      </trkpt>
      <trkpt lat="59.741031155" lon="30.8493610192">
        <ele>27.53</ele>
        <time>2026-05-02T23:20:50.000Z</time>
      </trkpt>
      <trkpt lat="59.7410193365" lon="30.8494248055">
        <ele>27.53</ele>
        <time>2026-05-02T23:20:57.000Z</time>
      </trkpt>
      <trkpt lat="59.7410041653" lon="30.8494703192">
        <ele>27.53</ele>
        <time>2026-05-02T23:21:07.000Z</time>
      </trkpt>
      <trkpt lat="59.7410060093" lon="30.8495055232">
        <ele>27.53</ele>
        <time>2026-05-02T23:21:22.000Z</time>
      </trkpt>
      <trkpt lat="59.7409970406" lon="30.8495152462">
        <ele>27.53</ele>
        <time>2026-05-02T23:21:30.000Z</time>
      </trkpt>
      <trkpt lat="59.7409817856" lon="30.8495118096">
        <ele>27.53</ele>
        <time>2026-05-02T23:21:38.000Z</time>
      </trkpt>
      <trkpt lat="59.7409754992" lon="30.8495415654">
        <ele>27.53</ele>
        <time>2026-05-02T23:21:44.000Z</time>
      </trkpt>
      <trkpt lat="59.7409602441" lon="30.8496036753">
        <ele>27.53</ele>
        <time>2026-05-02T23:21:53.000Z</time>
      </trkpt>
      <trkpt lat="59.7409562208" lon="30.8496343531">
        <ele>28.02</ele>
        <time>2026-05-02T23:22:06.000Z</time>
      </trkpt>
      <trkpt lat="59.7409480903" lon="30.8496548887">
        <ele>28.02</ele>
        <time>2026-05-02T23:22:14.000Z</time>
      </trkpt>
      <trkpt lat="59.7409521975" lon="30.849650111">
        <ele>28.02</ele>
        <time>2026-05-02T23:22:22.000Z</time>
      </trkpt>
      <trkpt lat="59.7409514431" lon="30.8496086206">
        <ele>28.02</ele>
        <time>2026-05-02T23:22:31.000Z</time>
      </trkpt>
      <trkpt lat="59.7409418877" lon="30.8495460916">
        <ele>28.02</ele>
        <time>2026-05-02T23:22:38.000Z</time>
      </trkpt>
      <trkpt lat="59.7409426421" lon="30.8495415654">
        <ele>28.02</ele>
        <time>2026-05-02T23:22:47.000Z</time>
      </trkpt>
      <trkpt lat="59.7408915125" lon="30.8495499473">
        <ele>28.02</ele>
        <time>2026-05-02T23:22:53.000Z</time>
      </trkpt>
      <trkpt lat="59.740860248" lon="30.8495364524">
        <ele>28.02</ele>
        <time>2026-05-02T23:23:00.000Z</time>
      </trkpt>
      <trkpt lat="59.740860248" lon="30.849525556">
        <ele>28.02</ele>
        <time>2026-05-02T23:23:10.000Z</time>
      </trkpt>
      <trkpt lat="59.7408327553" lon="30.8494668826">
        <ele>28.02</ele>
        <time>2026-05-02T23:23:17.000Z</time>
      </trkpt>
      <trkpt lat="59.7408186737" lon="30.8494563214">
        <ele>28.02</ele>
        <time>2026-05-02T23:23:28.000Z</time>
      </trkpt>
      <trkpt lat="59.74080652" lon="30.8494621888">
        <ele>28.02</ele>
        <time>2026-05-02T23:23:33.000Z</time>
      </trkpt>
      <trkpt lat="59.7407964617" lon="30.8494623564">
        <ele>28.02</ele>
        <time>2026-05-02T23:23:39.000Z</time>
      </trkpt>
      <trkpt lat="59.740787996" lon="30.8494206145">
        <ele>28.02</ele>
        <time>2026-05-02T23:23:46.000Z</time>
      </trkpt>
      <trkpt lat="59.7407542169" lon="30.8493692335">
        <ele>28.02</ele>
        <time>2026-05-02T23:23:53.000Z</time>
      </trkpt>
      <trkpt lat="59.7407098766" lon="30.8493538108">
        <ele>28.02</ele>
        <time>2026-05-02T23:23:59.000Z</time>
      </trkpt>
      <trkpt lat="59.740707865" lon="30.8493782021">
        <ele>28.02</ele>
        <time>2026-05-02T23:24:04.000Z</time>
      </trkpt>
      <trkpt lat="59.7407079488" lon="30.8493816387">
        <ele>28.02</ele>
        <time>2026-05-02T23:24:05.000Z</time>
      </trkpt>
      <trkpt lat="59.7406479344" lon="30.8493339457">
        <ele>28.02</ele>
        <time>2026-05-02T23:24:12.000Z</time>
      </trkpt>
      <trkpt lat="59.7406054381" lon="30.8492855821">
        <ele>28.02</ele>
        <time>2026-05-02T23:24:20.000Z</time>
      </trkpt>
      <trkpt lat="59.7405666299" lon="30.8492150903">
        <ele>28.02</ele>
        <time>2026-05-02T23:24:27.000Z</time>
      </trkpt>
      <trkpt lat="59.7405560687" lon="30.8491844963">
        <ele>28.02</ele>
        <time>2026-05-02T23:24:33.000Z</time>
      </trkpt>
      <trkpt lat="59.7405496147" lon="30.849181395">
        <ele>28.02</ele>
        <time>2026-05-02T23:24:39.000Z</time>
      </trkpt>
      <trkpt lat="59.7405252233" lon="30.8491693251">
        <ele>28.02</ele>
        <time>2026-05-02T23:24:46.000Z</time>
      </trkpt>
      <trkpt lat="59.7405067831" lon="30.8491192013">
        <ele>28.02</ele>
        <time>2026-05-02T23:24:54.000Z</time>
      </trkpt>
      <trkpt lat="59.7404777817" lon="30.8490224741">
        <ele>28.02</ele>
        <time>2026-05-02T23:24:59.000Z</time>
      </trkpt>
      <trkpt lat="59.7404352855" lon="30.8489184547">
        <ele>28.02</ele>
        <time>2026-05-02T23:25:05.000Z</time>
      </trkpt>
      <trkpt lat="59.740418857" lon="30.8489016071">
        <ele>28.02</ele>
        <time>2026-05-02T23:25:08.000Z</time>
      </trkpt>
      <trkpt lat="59.7404063679" lon="30.8488528244">
        <ele>28.02</ele>
        <time>2026-05-02T23:25:14.000Z</time>
      </trkpt>
      <trkpt lat="59.7403968964" lon="30.8488128427">
        <ele>28.02</ele>
        <time>2026-05-02T23:25:22.000Z</time>
      </trkpt>
      <trkpt lat="59.7403896041" lon="30.8487802371">
        <ele>28.02</ele>
        <time>2026-05-02T23:25:31.000Z</time>
      </trkpt>
      <trkpt lat="59.7403750196" lon="30.8487426862">
        <ele>28.02</ele>
        <time>2026-05-02T23:25:38.000Z</time>
      </trkpt>
      <trkpt lat="59.7403723374" lon="30.8487405907">
        <ele>28.02</ele>
        <time>2026-05-02T23:25:47.000Z</time>
      </trkpt>
      <trkpt lat="59.7403482813" lon="30.8487218991">
        <ele>28.02</ele>
        <time>2026-05-02T23:25:59.000Z</time>
      </trkpt>
      <trkpt lat="59.7403177712" lon="30.8487281855">
        <ele>28.02</ele>
        <time>2026-05-02T23:26:06.000Z</time>
      </trkpt>
      <trkpt lat="59.7402853332" lon="30.8487097453">
        <ele>28.02</ele>
        <time>2026-05-02T23:26:13.000Z</time>
      </trkpt>
      <trkpt lat="59.740267396" lon="30.8486946579">
        <ele>28.02</ele>
        <time>2026-05-02T23:26:20.000Z</time>
      </trkpt>
      <trkpt lat="59.7402355447" lon="30.8486383315">
        <ele>28.02</ele>
        <time>2026-05-02T23:26:26.000Z</time>
      </trkpt>
      <trkpt lat="59.7402062081" lon="30.8485989366">
        <ele>28.02</ele>
        <time>2026-05-02T23:26:29.000Z</time>
      </trkpt>
      <trkpt lat="59.740122892" lon="30.8484975155">
        <ele>28.02</ele>
        <time>2026-05-02T23:26:38.000Z</time>
      </trkpt>
      <trkpt lat="59.7401139233" lon="30.8484338969">
        <ele>28.02</ele>
        <time>2026-05-02T23:26:45.000Z</time>
      </trkpt>
      <trkpt lat="59.7400806472" lon="30.8483545203">
        <ele>28.02</ele>
        <time>2026-05-02T23:26:51.000Z</time>
      </trkpt>
      <trkpt lat="59.7400105745" lon="30.8482854534">
        <ele>28.02</ele>
        <time>2026-05-02T23:26:57.000Z</time>
      </trkpt>
      <trkpt lat="59.7399929725" lon="30.8482455555">
        <ele>28.02</ele>
        <time>2026-05-02T23:27:03.000Z</time>
      </trkpt>
      <trkpt lat="59.7399689164" lon="30.8481882233">
        <ele>28.02</ele>
        <time>2026-05-02T23:27:10.000Z</time>
      </trkpt>
      <trkpt lat="59.7399636358" lon="30.8481779136">
        <ele>28.02</ele>
        <time>2026-05-02T23:27:18.000Z</time>
      </trkpt>
      <trkpt lat="59.7399652284" lon="30.8481633291">
        <ele>27.53</ele>
        <time>2026-05-02T23:27:32.000Z</time>
      </trkpt>
      <trkpt lat="59.7399647254" lon="30.8481643349">
        <ele>27.53</ele>
        <time>2026-05-02T23:27:47.000Z</time>
      </trkpt>
      <trkpt lat="59.7399586067" lon="30.8481481578">
        <ele>27.53</ele>
        <time>2026-05-02T23:28:04.000Z</time>
      </trkpt>
      <trkpt lat="59.7399552539" lon="30.8481494151">
        <ele>27.05</ele>
        <time>2026-05-02T23:28:19.000Z</time>
      </trkpt>
      <trkpt lat="59.7399361432" lon="30.8481396921">
        <ele>27.05</ele>
        <time>2026-05-02T23:28:33.000Z</time>
      </trkpt>
      <trkpt lat="59.7399330419" lon="30.8481456432">
        <ele>27.05</ele>
        <time>2026-05-02T23:28:49.000Z</time>
      </trkpt>
      <trkpt lat="59.7399265878" lon="30.8481577132">
        <ele>27.05</ele>
        <time>2026-05-02T23:29:03.000Z</time>
      </trkpt>
      <trkpt lat="59.7399260011" lon="30.8481571265">
        <ele>27.05</ele>
        <time>2026-05-02T23:29:14.000Z</time>
      </trkpt>
      <trkpt lat="59.7399178706" lon="30.8481398597">
        <ele>27.05</ele>
        <time>2026-05-02T23:29:28.000Z</time>
      </trkpt>
      <trkpt lat="59.7399113327" lon="30.8481071703">
        <ele>27.05</ele>
        <time>2026-05-02T23:29:36.000Z</time>
      </trkpt>
      <trkpt lat="59.7398993466" lon="30.8480847906">
        <ele>27.05</ele>
        <time>2026-05-02T23:29:43.000Z</time>
      </trkpt>
      <trkpt lat="59.7398807388" lon="30.8480164781">
        <ele>27.05</ele>
        <time>2026-05-02T23:29:51.000Z</time>
      </trkpt>
      <trkpt lat="59.7398367338" lon="30.8479265403">
        <ele>27.05</ele>
        <time>2026-05-02T23:29:58.000Z</time>
      </trkpt>
      <trkpt lat="59.7397698462" lon="30.8477950282">
        <ele>27.05</ele>
        <time>2026-05-02T23:30:05.000Z</time>
      </trkpt>
      <trkpt lat="59.7397603747" lon="30.8477468323">
        <ele>27.05</ele>
        <time>2026-05-02T23:30:14.000Z</time>
      </trkpt>
      <trkpt lat="59.7396988515" lon="30.8477197587">
        <ele>27.05</ele>
        <time>2026-05-02T23:30:23.000Z</time>
      </trkpt>
      <trkpt lat="59.7396716941" lon="30.8477032464">
        <ele>27.05</ele>
        <time>2026-05-02T23:30:29.000Z</time>
      </trkpt>
      <trkpt lat="59.7396202292" lon="30.8476701379">
        <ele>27.05</ele>
        <time>2026-05-02T23:30:35.000Z</time>
      </trkpt>
      <trkpt lat="59.7396082431" lon="30.847651111">
        <ele>27.05</ele>
        <time>2026-05-02T23:30:43.000Z</time>
      </trkpt>
      <trkpt lat="59.7395915631" lon="30.8476340119">
        <ele>27.05</ele>
        <time>2026-05-02T23:30:52.000Z</time>
      </trkpt>
      <trkpt lat="59.7395848576" lon="30.847622361">
        <ele>27.05</ele>
        <time>2026-05-02T23:31:00.000Z</time>
      </trkpt>
      <trkpt lat="59.7395664174" lon="30.8476002328">
        <ele>27.05</ele>
        <time>2026-05-02T23:31:10.000Z</time>
      </trkpt>
      <trkpt lat="59.7395585384" lon="30.8475551382">
        <ele>27.05</ele>
        <time>2026-05-02T23:31:22.000Z</time>
      </trkpt>
      <trkpt lat="59.7395363264" lon="30.8474880829">
        <ele>27.05</ele>
        <time>2026-05-02T23:31:28.000Z</time>
      </trkpt>
      <trkpt lat="59.739511013" lon="30.8474492747">
        <ele>27.05</ele>
        <time>2026-05-02T23:31:36.000Z</time>
      </trkpt>
      <trkpt lat="59.7394884657" lon="30.8474206086">
        <ele>27.05</ele>
        <time>2026-05-02T23:31:41.000Z</time>
      </trkpt>
      <trkpt lat="59.7394479811" lon="30.8473553136">
        <ele>27.05</ele>
        <time>2026-05-02T23:31:48.000Z</time>
      </trkpt>
      <trkpt lat="59.7394349054" lon="30.8473035134">
        <ele>27.05</ele>
        <time>2026-05-02T23:31:56.000Z</time>
      </trkpt>
      <trkpt lat="59.7394075803" lon="30.8472546469">
        <ele>27.05</ele>
        <time>2026-05-02T23:32:01.000Z</time>
      </trkpt>
      <trkpt lat="59.7393870447" lon="30.8471808862">
        <ele>27.05</ele>
        <time>2026-05-02T23:32:10.000Z</time>
      </trkpt>
      <trkpt lat="59.7393654194" lon="30.8470590133">
        <ele>27.05</ele>
        <time>2026-05-02T23:32:19.000Z</time>
      </trkpt>
      <trkpt lat="59.7393594682" lon="30.8470488712">
        <ele>27.05</ele>
        <time>2026-05-02T23:32:29.000Z</time>
      </trkpt>
      <trkpt lat="59.7393514216" lon="30.847031353">
        <ele>27.05</ele>
        <time>2026-05-02T23:32:40.000Z</time>
      </trkpt>
      <trkpt lat="59.7393538523" lon="30.8470317721">
        <ele>27.05</ele>
        <time>2026-05-02T23:32:50.000Z</time>
      </trkpt>
      <trkpt lat="59.7393559478" lon="30.8470255695">
        <ele>27.05</ele>
        <time>2026-05-02T23:33:01.000Z</time>
      </trkpt>
      <trkpt lat="59.7393560316" lon="30.8470194507">
        <ele>27.05</ele>
        <time>2026-05-02T23:33:10.000Z</time>
      </trkpt>
      <trkpt lat="59.7393539362" lon="30.8470052853">
        <ele>27.05</ele>
        <time>2026-05-02T23:33:22.000Z</time>
      </trkpt>
      <trkpt lat="59.7393469792" lon="30.8470122423">
        <ele>27.05</ele>
        <time>2026-05-02T23:33:34.000Z</time>
      </trkpt>
      <trkpt lat="59.7393500805" lon="30.8470126614">
        <ele>27.05</ele>
        <time>2026-05-02T23:33:51.000Z</time>
      </trkpt>
      <trkpt lat="59.7393371724" lon="30.8469977416">
        <ele>27.05</ele>
        <time>2026-05-02T23:34:10.000Z</time>
      </trkpt>
      <trkpt lat="59.7393326461" lon="30.8470371366">
        <ele>27.05</ele>
        <time>2026-05-02T23:34:24.000Z</time>
      </trkpt>
      <trkpt lat="59.7393238451" lon="30.8470625337">
        <ele>27.05</ele>
        <time>2026-05-02T23:34:37.000Z</time>
      </trkpt>
      <trkpt lat="59.7393261921" lon="30.8470661379">
        <ele>27.05</ele>
        <time>2026-05-02T23:34:51.000Z</time>
      </trkpt>
      <trkpt lat="59.7393337358" lon="30.8470890205">
        <ele>27.05</ele>
        <time>2026-05-02T23:35:05.000Z</time>
      </trkpt>
      <trkpt lat="59.7393297963" lon="30.8470894396">
        <ele>27.05</ele>
        <time>2026-05-02T23:35:24.000Z</time>
      </trkpt>
      <trkpt lat="59.739329461" lon="30.8470818959">
        <ele>28.5</ele>
        <time>2026-05-02T23:35:38.000Z</time>
      </trkpt>
      <trkpt lat="59.7393292934" lon="30.8470813092">
        <ele>28.5</ele>
        <time>2026-05-02T23:35:48.000Z</time>
      </trkpt>
      <trkpt lat="59.7393273655" lon="30.8470807225">
        <ele>28.5</ele>
        <time>2026-05-02T23:35:58.000Z</time>
      </trkpt>
      <trkpt lat="59.7393227555" lon="30.8470756095">
        <ele>28.5</ele>
        <time>2026-05-02T23:36:10.000Z</time>
      </trkpt>
      <trkpt lat="59.7393204086" lon="30.8470773697">
        <ele>28.5</ele>
        <time>2026-05-02T23:36:23.000Z</time>
      </trkpt>
      <trkpt lat="59.7393101826" lon="30.8470905293">
        <ele>28.98</ele>
        <time>2026-05-02T23:36:41.000Z</time>
      </trkpt>
      <trkpt lat="59.7393098474" lon="30.8471034374">
        <ele>28.98</ele>
        <time>2026-05-02T23:36:55.000Z</time>
      </trkpt>
      <trkpt lat="59.7393054888" lon="30.8471015934">
        <ele>28.98</ele>
        <time>2026-05-02T23:37:09.000Z</time>
      </trkpt>
      <trkpt lat="59.739305824" lon="30.8470967319">
        <ele>28.98</ele>
        <time>2026-05-02T23:37:21.000Z</time>
      </trkpt>
      <trkpt lat="59.7393068299" lon="30.847093882">
        <ele>28.98</ele>
        <time>2026-05-02T23:37:32.000Z</time>
      </trkpt>
      <trkpt lat="59.7393059079" lon="30.8470940497">
        <ele>28.98</ele>
        <time>2026-05-02T23:37:44.000Z</time>
      </trkpt>
      <trkpt lat="59.7392994538" lon="30.8470994979">
        <ele>28.98</ele>
        <time>2026-05-02T23:38:03.000Z</time>
      </trkpt>
      <trkpt lat="59.7392986156" lon="30.8470965642">
        <ele>29.46</ele>
        <time>2026-05-02T23:38:15.000Z</time>
      </trkpt>
      <trkpt lat="59.739295179" lon="30.8471010905">
        <ele>28.5</ele>
        <time>2026-05-02T23:38:30.000Z</time>
      </trkpt>
      <trkpt lat="59.739297023" lon="30.8471020125">
        <ele>28.5</ele>
        <time>2026-05-02T23:38:46.000Z</time>
      </trkpt>
      <trkpt lat="59.739298448" lon="30.8471048623">
        <ele>28.5</ele>
        <time>2026-05-02T23:38:56.000Z</time>
      </trkpt>
      <trkpt lat="59.7393013816" lon="30.8471094724">
        <ele>28.5</ele>
        <time>2026-05-02T23:39:11.000Z</time>
      </trkpt>
      <trkpt lat="59.7393001243" lon="30.8471095562">
        <ele>28.5</ele>
        <time>2026-05-02T23:39:24.000Z</time>
      </trkpt>
      <trkpt lat="59.7392953467" lon="30.8471140824">
        <ele>28.5</ele>
        <time>2026-05-02T23:39:41.000Z</time>
      </trkpt>
      <trkpt lat="59.7392939217" lon="30.8471130766">
        <ele>28.5</ele>
        <time>2026-05-02T23:39:53.000Z</time>
      </trkpt>
      <trkpt lat="59.7392962687" lon="30.8470994979">
        <ele>28.5</ele>
        <time>2026-05-02T23:40:06.000Z</time>
      </trkpt>
      <trkpt lat="59.739303058" lon="30.8470849134">
        <ele>28.5</ele>
        <time>2026-05-02T23:40:18.000Z</time>
      </trkpt>
      <trkpt lat="59.7393112723" lon="30.8470596001">
        <ele>28.5</ele>
        <time>2026-05-02T23:40:29.000Z</time>
      </trkpt>
      <trkpt lat="59.7393238451" lon="30.8470399026">
        <ele>28.98</ele>
        <time>2026-05-02T23:40:40.000Z</time>
      </trkpt>
      <trkpt lat="59.7393400222" lon="30.8470136672">
        <ele>28.98</ele>
        <time>2026-05-02T23:40:51.000Z</time>
      </trkpt>
      <trkpt lat="59.7393539362" lon="30.846999418">
        <ele>28.98</ele>
        <time>2026-05-02T23:40:54.000Z</time>
      </trkpt>
      <trkpt lat="59.7393922415" lon="30.8470026031">
        <ele>28.98</ele>
        <time>2026-05-02T23:41:01.000Z</time>
      </trkpt>
      <trkpt lat="59.7394021321" lon="30.8469639625">
        <ele>28.98</ele>
        <time>2026-05-02T23:41:09.000Z</time>
      </trkpt>
      <trkpt lat="59.7394238412" lon="30.8469290938">
        <ele>28.98</ele>
        <time>2026-05-02T23:41:18.000Z</time>
      </trkpt>
      <trkpt lat="59.7394399345" lon="30.8468993381">
        <ele>28.5</ele>
        <time>2026-05-02T23:41:28.000Z</time>
      </trkpt>
      <trkpt lat="59.7394532617" lon="30.8468660619">
        <ele>28.5</ele>
        <time>2026-05-02T23:41:40.000Z</time>
      </trkpt>
      <trkpt lat="59.7394691035" lon="30.846831277">
        <ele>28.5</ele>
        <time>2026-05-02T23:41:52.000Z</time>
      </trkpt>
      <trkpt lat="59.7394819278" lon="30.846809065">
        <ele>28.5</ele>
        <time>2026-05-02T23:42:03.000Z</time>
      </trkpt>
      <trkpt lat="59.7395141143" lon="30.846777549">
        <ele>28.5</ele>
        <time>2026-05-02T23:42:15.000Z</time>
      </trkpt>
      <trkpt lat="59.7395718656" lon="30.8467600308">
        <ele>28.5</ele>
        <time>2026-05-02T23:42:35.000Z</time>
      </trkpt>
      <trkpt lat="59.7396060638" lon="30.8467430156">
        <ele>28.5</ele>
        <time>2026-05-02T23:42:55.000Z</time>
      </trkpt>
      <trkpt lat="59.739620816" lon="30.8467348851">
        <ele>28.5</ele>
        <time>2026-05-02T23:43:11.000Z</time>
      </trkpt>
      <trkpt lat="59.7396410163" lon="30.846737735">
        <ele>28.5</ele>
        <time>2026-05-02T23:43:30.000Z</time>
      </trkpt>
      <trkpt lat="59.7396550979" lon="30.8467342984">
        <ele>28.5</ele>
        <time>2026-05-02T23:43:48.000Z</time>
      </trkpt>
      <trkpt lat="59.7396628093" lon="30.8467179537">
        <ele>28.5</ele>
        <time>2026-05-02T23:43:58.000Z</time>
      </trkpt>
      <trkpt lat="59.739680076" lon="30.8466842584">
        <ele>28.5</ele>
        <time>2026-05-02T23:44:09.000Z</time>
      </trkpt>
      <trkpt lat="59.7396936547" lon="30.8466646448">
        <ele>28.02</ele>
        <time>2026-05-02T23:44:20.000Z</time>
      </trkpt>
      <trkpt lat="59.7397109214" lon="30.8466262557">
        <ele>28.02</ele>
        <time>2026-05-02T23:44:30.000Z</time>
      </trkpt>
      <trkpt lat="59.7397380788" lon="30.8465985116">
        <ele>28.02</ele>
        <time>2026-05-02T23:44:39.000Z</time>
      </trkpt>
      <trkpt lat="59.7397658229" lon="30.8465279359">
        <ele>28.02</ele>
        <time>2026-05-02T23:44:49.000Z</time>
      </trkpt>
      <trkpt lat="59.7397851013" lon="30.846492229">
        <ele>28.02</ele>
        <time>2026-05-02T23:44:59.000Z</time>
      </trkpt>
      <trkpt lat="59.7398080677" lon="30.8464151155">
        <ele>28.02</ele>
        <time>2026-05-02T23:45:09.000Z</time>
      </trkpt>
      <trkpt lat="59.7398665734" lon="30.8463598788">
        <ele>28.02</ele>
        <time>2026-05-02T23:45:16.000Z</time>
      </trkpt>
      <trkpt lat="59.7398712672" lon="30.8462797478">
        <ele>28.02</ele>
        <time>2026-05-02T23:45:25.000Z</time>
      </trkpt>
      <trkpt lat="59.739894066" lon="30.8462549374">
        <ele>28.02</ele>
        <time>2026-05-02T23:45:35.000Z</time>
      </trkpt>
      <trkpt lat="59.7398997657" lon="30.8462024666">
        <ele>28.02</ele>
        <time>2026-05-02T23:45:45.000Z</time>
      </trkpt>
      <trkpt lat="59.7399145178" lon="30.8461800031">
        <ele>28.02</ele>
        <time>2026-05-02T23:45:51.000Z</time>
      </trkpt>
      <trkpt lat="59.7399345506" lon="30.8461557794">
        <ele>28.02</ele>
        <time>2026-05-02T23:46:02.000Z</time>
      </trkpt>
      <trkpt lat="59.739957517" lon="30.8460694458">
        <ele>28.02</ele>
        <time>2026-05-02T23:46:13.000Z</time>
      </trkpt>
      <trkpt lat="59.7399757896" lon="30.8460287098">
        <ele>27.53</ele>
        <time>2026-05-02T23:46:24.000Z</time>
      </trkpt>
      <trkpt lat="59.7399917152" lon="30.8459850401">
        <ele>27.53</ele>
        <time>2026-05-02T23:46:34.000Z</time>
      </trkpt>
      <trkpt lat="59.7400083113" lon="30.8459399454">
        <ele>27.53</ele>
        <time>2026-05-02T23:46:44.000Z</time>
      </trkpt>
      <trkpt lat="59.740023315" lon="30.8458704595">
        <ele>27.53</ele>
        <time>2026-05-02T23:46:54.000Z</time>
      </trkpt>
      <trkpt lat="59.7400302719" lon="30.8458353393">
        <ele>27.53</ele>
        <time>2026-05-02T23:47:02.000Z</time>
      </trkpt>
      <trkpt lat="59.7400428448" lon="30.845803488">
        <ele>27.53</ele>
        <time>2026-05-02T23:47:14.000Z</time>
      </trkpt>
      <trkpt lat="59.7400578484" lon="30.8457705472">
        <ele>27.53</ele>
        <time>2026-05-02T23:47:24.000Z</time>
      </trkpt>
      <trkpt lat="59.7400748637" lon="30.8457397856">
        <ele>27.53</ele>
        <time>2026-05-02T23:47:35.000Z</time>
      </trkpt>
      <trkpt lat="59.7400899511" lon="30.8457167353">
        <ele>27.53</ele>
        <time>2026-05-02T23:47:46.000Z</time>
      </trkpt>
      <trkpt lat="59.7400980815" lon="30.8456911705">
        <ele>27.53</ele>
        <time>2026-05-02T23:47:58.000Z</time>
      </trkpt>
      <trkpt lat="59.7401000932" lon="30.8456612471">
        <ele>27.53</ele>
        <time>2026-05-02T23:48:07.000Z</time>
      </trkpt>
      <trkpt lat="59.7401173599" lon="30.84553116">
        <ele>27.53</ele>
        <time>2026-05-02T23:48:15.000Z</time>
      </trkpt>
      <trkpt lat="59.7401185334" lon="30.8454503585">
        <ele>27.53</ele>
        <time>2026-05-02T23:48:22.000Z</time>
      </trkpt>
      <trkpt lat="59.740102021" lon="30.8453631867">
        <ele>27.53</ele>
        <time>2026-05-02T23:48:29.000Z</time>
      </trkpt>
      <trkpt lat="59.7400752828" lon="30.8451455086">
        <ele>28.02</ele>
        <time>2026-05-02T23:48:37.000Z</time>
      </trkpt>
      <trkpt lat="59.7400579322" lon="30.8450533077">
        <ele>28.02</ele>
        <time>2026-05-02T23:48:45.000Z</time>
      </trkpt>
      <trkpt lat="59.7400246561" lon="30.8448628709">
        <ele>28.02</ele>
        <time>2026-05-02T23:48:53.000Z</time>
      </trkpt>
      <trkpt lat="59.7400054615" lon="30.8447407465">
        <ele>28.02</ele>
        <time>2026-05-02T23:49:00.000Z</time>
      </trkpt>
      <trkpt lat="59.7399840038" lon="30.8446545806">
        <ele>28.02</ele>
        <time>2026-05-02T23:49:08.000Z</time>
      </trkpt>
      <trkpt lat="59.7399806511" lon="30.8446082287">
        <ele>28.02</ele>
        <time>2026-05-02T23:49:17.000Z</time>
      </trkpt>
      <trkpt lat="59.739963552" lon="30.8445247449">
        <ele>28.02</ele>
        <time>2026-05-02T23:49:26.000Z</time>
      </trkpt>
      <trkpt lat="59.7399341315" lon="30.8444110863">
        <ele>28.02</ele>
        <time>2026-05-02T23:49:35.000Z</time>
      </trkpt>
      <trkpt lat="59.7399114165" lon="30.8443097491">
        <ele>28.02</ele>
        <time>2026-05-02T23:49:41.000Z</time>
      </trkpt>
      <trkpt lat="59.739848217" lon="30.8441646583">
        <ele>28.02</ele>
        <time>2026-05-02T23:49:50.000Z</time>
      </trkpt>
      <trkpt lat="59.7398156952" lon="30.8440954238">
        <ele>28.02</ele>
        <time>2026-05-02T23:49:58.000Z</time>
      </trkpt>
      <trkpt lat="59.739806056" lon="30.8440592978">
        <ele>28.5</ele>
        <time>2026-05-02T23:50:08.000Z</time>
      </trkpt>
      <trkpt lat="59.7397952434" lon="30.8440323081">
        <ele>28.5</ele>
        <time>2026-05-02T23:50:17.000Z</time>
      </trkpt>
      <trkpt lat="59.7397692595" lon="30.8440141194">
        <ele>28.5</ele>
        <time>2026-05-02T23:50:26.000Z</time>
      </trkpt>
      <trkpt lat="59.7397408448" lon="30.8439820167">
        <ele>28.5</ele>
        <time>2026-05-02T23:50:35.000Z</time>
      </trkpt>
      <trkpt lat="59.7397148609" lon="30.8439774904">
        <ele>28.5</ele>
        <time>2026-05-02T23:50:45.000Z</time>
      </trkpt>
      <trkpt lat="59.7396929841" lon="30.8439774904">
        <ele>28.5</ele>
        <time>2026-05-02T23:50:54.000Z</time>
      </trkpt>
      <trkpt lat="59.7396370769" lon="30.8439602237">
        <ele>28.5</ele>
        <time>2026-05-02T23:51:02.000Z</time>
      </trkpt>
      <trkpt lat="59.7395581193" lon="30.8439297974">
        <ele>28.5</ele>
        <time>2026-05-02T23:51:12.000Z</time>
      </trkpt>
      <trkpt lat="59.7394981887" lon="30.8438757341">
        <ele>28.5</ele>
        <time>2026-05-02T23:51:21.000Z</time>
      </trkpt>
      <trkpt lat="59.7394637391" lon="30.8438436314">
        <ele>28.5</ele>
        <time>2026-05-02T23:51:29.000Z</time>
      </trkpt>
      <trkpt lat="59.7393933311" lon="30.8437739778">
        <ele>29.46</ele>
        <time>2026-05-02T23:51:37.000Z</time>
      </trkpt>
      <trkpt lat="59.7393078357" lon="30.8437008038">
        <ele>29.46</ele>
        <time>2026-05-02T23:51:45.000Z</time>
      </trkpt>
      <trkpt lat="59.7392579634" lon="30.8436258696">
        <ele>29.46</ele>
        <time>2026-05-02T23:51:56.000Z</time>
      </trkpt>
      <trkpt lat="59.7392074205" lon="30.843557138">
        <ele>29.46</ele>
        <time>2026-05-02T23:52:03.000Z</time>
      </trkpt>
      <trkpt lat="59.7391257808" lon="30.8434160706">
        <ele>29.46</ele>
        <time>2026-05-02T23:52:13.000Z</time>
      </trkpt>
      <trkpt lat="59.7390564624" lon="30.8433578163">
        <ele>29.46</ele>
        <time>2026-05-02T23:52:23.000Z</time>
      </trkpt>
      <trkpt lat="59.7390247788" lon="30.8433368616">
        <ele>29.46</ele>
        <time>2026-05-02T23:52:33.000Z</time>
      </trkpt>
      <trkpt lat="59.7389850486" lon="30.843295455">
        <ele>29.46</ele>
        <time>2026-05-02T23:52:42.000Z</time>
      </trkpt>
      <trkpt lat="59.7389434744" lon="30.8432418108">
        <ele>29.46</ele>
        <time>2026-05-02T23:52:50.000Z</time>
      </trkpt>
      <trkpt lat="59.7389024869" lon="30.8431680501">
        <ele>29.46</ele>
        <time>2026-05-02T23:53:00.000Z</time>
      </trkpt>
      <trkpt lat="59.7388761677" lon="30.8431204408">
        <ele>29.46</ele>
        <time>2026-05-02T23:53:07.000Z</time>
      </trkpt>
      <trkpt lat="59.7388502676" lon="30.8430809621">
        <ele>29.46</ele>
        <time>2026-05-02T23:53:15.000Z</time>
      </trkpt>
      <trkpt lat="59.7388188355" lon="30.8430344425">
        <ele>29.46</ele>
        <time>2026-05-02T23:53:24.000Z</time>
      </trkpt>
      <trkpt lat="59.738793103" lon="30.842989767">
        <ele>29.46</ele>
        <time>2026-05-02T23:53:32.000Z</time>
      </trkpt>
      <trkpt lat="59.7387261316" lon="30.8428867534">
        <ele>29.46</ele>
        <time>2026-05-02T23:53:42.000Z</time>
      </trkpt>
      <trkpt lat="59.7386951186" lon="30.8428644575">
        <ele>29.46</ele>
        <time>2026-05-02T23:53:50.000Z</time>
      </trkpt>
      <trkpt lat="59.7386584058" lon="30.8428709116">
        <ele>29.46</ele>
        <time>2026-05-02T23:53:58.000Z</time>
      </trkpt>
      <trkpt lat="59.7386082821" lon="30.8428570814">
        <ele>29.46</ele>
        <time>2026-05-02T23:54:12.000Z</time>
      </trkpt>
      <trkpt lat="59.7385427356" lon="30.8428666368">
        <ele>29.46</ele>
        <time>2026-05-02T23:54:31.000Z</time>
      </trkpt>
      <trkpt lat="59.738529576" lon="30.8428675588">
        <ele>29.46</ele>
        <time>2026-05-02T23:54:49.000Z</time>
      </trkpt>
      <trkpt lat="59.7385267261" lon="30.8428583387">
        <ele>29.46</ele>
        <time>2026-05-02T23:55:05.000Z</time>
      </trkpt>
      <trkpt lat="59.7385002393" lon="30.8428465202">
        <ele>29.46</ele>
        <time>2026-05-02T23:55:18.000Z</time>
      </trkpt>
      <trkpt lat="59.7384895105" lon="30.8428658824">
        <ele>28.5</ele>
        <time>2026-05-02T23:55:25.000Z</time>
      </trkpt>
      <trkpt lat="59.7384801228" lon="30.8428705763">
        <ele>28.5</ele>
        <time>2026-05-02T23:55:32.000Z</time>
      </trkpt>
      <trkpt lat="59.7384647001" lon="30.8428959735">
        <ele>28.02</ele>
        <time>2026-05-02T23:55:40.000Z</time>
      </trkpt>
      <trkpt lat="59.7384492774" lon="30.8429160062">
        <ele>28.02</ele>
        <time>2026-05-02T23:55:46.000Z</time>
      </trkpt>
      <trkpt lat="59.7384325974" lon="30.8429442532">
        <ele>28.02</ele>
        <time>2026-05-02T23:55:54.000Z</time>
      </trkpt>
      <trkpt lat="59.7384036798" lon="30.8429620229">
        <ele>28.02</ele>
        <time>2026-05-02T23:56:01.000Z</time>
      </trkpt>
      <trkpt lat="59.738389682" lon="30.8429793734">
        <ele>28.02</ele>
        <time>2026-05-02T23:56:08.000Z</time>
      </trkpt>
      <trkpt lat="59.7383830603" lon="30.8430088777">
        <ele>28.02</ele>
        <time>2026-05-02T23:56:15.000Z</time>
      </trkpt>
      <trkpt lat="59.7383713257" lon="30.8430250548">
        <ele>28.02</ele>
        <time>2026-05-02T23:56:22.000Z</time>
      </trkpt>
      <trkpt lat="59.7383455094" lon="30.8430343587">
        <ele>28.02</ele>
        <time>2026-05-02T23:56:28.000Z</time>
      </trkpt>
      <trkpt lat="59.7383003309" lon="30.8430757653">
        <ele>28.02</ele>
        <time>2026-05-02T23:56:36.000Z</time>
      </trkpt>
      <trkpt lat="59.7382922005" lon="30.8430959657">
        <ele>28.02</ele>
        <time>2026-05-02T23:56:42.000Z</time>
      </trkpt>
      <trkpt lat="59.7382905241" lon="30.8431068622">
        <ele>28.02</ele>
        <time>2026-05-02T23:56:48.000Z</time>
      </trkpt>
      <trkpt lat="59.7382740956" lon="30.8431123104">
        <ele>28.02</ele>
        <time>2026-05-02T23:56:59.000Z</time>
      </trkpt>
      <trkpt lat="59.7382486984" lon="30.8431103826">
        <ele>28.02</ele>
        <time>2026-05-02T23:57:07.000Z</time>
      </trkpt>
      <trkpt lat="59.7382192779" lon="30.8431389648">
        <ele>28.02</ele>
        <time>2026-05-02T23:57:15.000Z</time>
      </trkpt>
      <trkpt lat="59.7381821461" lon="30.8431872446">
        <ele>28.02</ele>
        <time>2026-05-02T23:57:25.000Z</time>
      </trkpt>
      <trkpt lat="59.7381332796" lon="30.8432242926">
        <ele>28.02</ele>
        <time>2026-05-02T23:57:32.000Z</time>
      </trkpt>
      <trkpt lat="59.738113666" lon="30.8432475105">
        <ele>28.02</ele>
        <time>2026-05-02T23:57:40.000Z</time>
      </trkpt>
      <trkpt lat="59.738101596" lon="30.8432781883">
        <ele>28.02</ele>
        <time>2026-05-02T23:57:47.000Z</time>
      </trkpt>
      <trkpt lat="59.7381007578" lon="30.843301909">
        <ele>28.02</ele>
        <time>2026-05-02T23:57:58.000Z</time>
      </trkpt>
      <trkpt lat="59.7380828205" lon="30.8433131408">
        <ele>28.02</ele>
        <time>2026-05-02T23:58:07.000Z</time>
      </trkpt>
      <trkpt lat="59.7380512208" lon="30.8433253784">
        <ele>28.02</ele>
        <time>2026-05-02T23:58:18.000Z</time>
      </trkpt>
      <trkpt lat="59.7380355466" lon="30.8433316648">
        <ele>28.02</ele>
        <time>2026-05-02T23:58:25.000Z</time>
      </trkpt>
      <trkpt lat="59.7380345408" lon="30.8433527872">
        <ele>28.02</ele>
        <time>2026-05-02T23:58:34.000Z</time>
      </trkpt>
      <trkpt lat="59.7380308527" lon="30.8433643542">
        <ele>28.02</ele>
        <time>2026-05-02T23:58:42.000Z</time>
      </trkpt>
      <trkpt lat="59.7380186152" lon="30.8433646895">
        <ele>28.02</ele>
        <time>2026-05-02T23:58:53.000Z</time>
      </trkpt>
      <trkpt lat="59.737992296" lon="30.8433618397">
        <ele>28.02</ele>
        <time>2026-05-02T23:58:58.000Z</time>
      </trkpt>
      <trkpt lat="59.7379794717" lon="30.8433625102">
        <ele>28.02</ele>
        <time>2026-05-02T23:59:05.000Z</time>
      </trkpt>
      <trkpt lat="59.7379594389" lon="30.8433698863">
        <ele>28.02</ele>
        <time>2026-05-02T23:59:12.000Z</time>
      </trkpt>
      <trkpt lat="59.7379175294" lon="30.8433916792">
        <ele>28.02</ele>
        <time>2026-05-02T23:59:17.000Z</time>
      </trkpt>
      <trkpt lat="59.7378766257" lon="30.843413556">
        <ele>28.02</ele>
        <time>2026-05-02T23:59:24.000Z</time>
      </trkpt>
      <trkpt lat="59.7378358059" lon="30.8434287272">
        <ele>28.02</ele>
        <time>2026-05-02T23:59:29.000Z</time>
      </trkpt>
      <trkpt lat="59.7377905436" lon="30.8434395399">
        <ele>28.02</ele>
        <time>2026-05-02T23:59:36.000Z</time>
      </trkpt>
      <trkpt lat="59.7377606202" lon="30.8434651885">
        <ele>28.02</ele>
        <time>2026-05-02T23:59:42.000Z</time>
      </trkpt>
      <trkpt lat="59.7377369832" lon="30.8434730675">
        <ele>28.02</ele>
        <time>2026-05-02T23:59:47.000Z</time>
      </trkpt>
      <trkpt lat="59.7377125081" lon="30.843488574">
        <ele>28.02</ele>
        <time>2026-05-02T23:59:53.000Z</time>
      </trkpt>
      <trkpt lat="59.7376664076" lon="30.8435312379">
        <ele>28.02</ele>
        <time>2026-05-03T00:00:00.000Z</time>
      </trkpt>
      <trkpt lat="59.7376208939" lon="30.8435321599">
        <ele>27.53</ele>
        <time>2026-05-03T00:00:08.000Z</time>
      </trkpt>
      <trkpt lat="59.7375803255" lon="30.8435189165">
        <ele>27.53</ele>
        <time>2026-05-03T00:00:14.000Z</time>
      </trkpt>
      <trkpt lat="59.7375257593" lon="30.8435148932">
        <ele>27.53</ele>
        <time>2026-05-03T00:00:23.000Z</time>
      </trkpt>
      <trkpt lat="59.7374932375" lon="30.8435108699">
        <ele>27.53</ele>
        <time>2026-05-03T00:00:31.000Z</time>
      </trkpt>
      <trkpt lat="59.7374532558" lon="30.8435302321">
        <ele>27.53</ele>
        <time>2026-05-03T00:00:39.000Z</time>
      </trkpt>
      <trkpt lat="59.7374171298" lon="30.843558982">
        <ele>27.53</ele>
        <time>2026-05-03T00:00:49.000Z</time>
      </trkpt>
      <trkpt lat="59.7373824287" lon="30.843606675">
        <ele>27.53</ele>
        <time>2026-05-03T00:00:57.000Z</time>
      </trkpt>
      <trkpt lat="59.7373547684" lon="30.8436635882">
        <ele>27.05</ele>
        <time>2026-05-03T00:01:04.000Z</time>
      </trkpt>
      <trkpt lat="59.7373142" lon="30.8437318169">
        <ele>27.05</ele>
        <time>2026-05-03T00:01:11.000Z</time>
      </trkpt>
      <trkpt lat="59.7372867912" lon="30.8437882271">
        <ele>27.05</ele>
        <time>2026-05-03T00:01:20.000Z</time>
      </trkpt>
      <trkpt lat="59.7372250166" lon="30.8438204974">
        <ele>27.05</ele>
        <time>2026-05-03T00:01:27.000Z</time>
      </trkpt>
      <trkpt lat="59.7371681873" lon="30.8438240178">
        <ele>27.05</ele>
        <time>2026-05-03T00:01:34.000Z</time>
      </trkpt>
      <trkpt lat="59.7371277027" lon="30.8438441344">
        <ele>26.57</ele>
        <time>2026-05-03T00:01:41.000Z</time>
      </trkpt>
      <trkpt lat="59.7370681912" lon="30.8439131174">
        <ele>26.57</ele>
        <time>2026-05-03T00:01:48.000Z</time>
      </trkpt>
      <trkpt lat="59.7370575462" lon="30.8439456392">
        <ele>26.57</ele>
        <time>2026-05-03T00:01:54.000Z</time>
      </trkpt>
      <trkpt lat="59.7370375972" lon="30.84395268">
        <ele>26.57</ele>
        <time>2026-05-03T00:02:00.000Z</time>
      </trkpt>
      <trkpt lat="59.7369868029" lon="30.8439657558">
        <ele>26.57</ele>
        <time>2026-05-03T00:02:07.000Z</time>
      </trkpt>
      <trkpt lat="59.7368963622" lon="30.8440033905">
        <ele>26.57</ele>
        <time>2026-05-03T00:02:13.000Z</time>
      </trkpt>
      <trkpt lat="59.7368215956" lon="30.8441116009">
        <ele>26.57</ele>
        <time>2026-05-03T00:02:20.000Z</time>
      </trkpt>
      <trkpt lat="59.7367812786" lon="30.8441590425">
        <ele>26.57</ele>
        <time>2026-05-03T00:02:29.000Z</time>
      </trkpt>
      <trkpt lat="59.7367393691" lon="30.8442160394">
        <ele>26.57</ele>
        <time>2026-05-03T00:02:35.000Z</time>
      </trkpt>
      <trkpt lat="59.7367029078" lon="30.8442983497">
        <ele>26.09</ele>
        <time>2026-05-03T00:02:43.000Z</time>
      </trkpt>
      <trkpt lat="59.736697292" lon="30.8443097491">
        <ele>26.09</ele>
        <time>2026-05-03T00:02:44.000Z</time>
      </trkpt>
      <trkpt lat="59.736672733" lon="30.8443635609">
        <ele>26.09</ele>
        <time>2026-05-03T00:02:50.000Z</time>
      </trkpt>
      <trkpt lat="59.7366102878" lon="30.8444279339">
        <ele>26.09</ele>
        <time>2026-05-03T00:02:58.000Z</time>
      </trkpt>
      <trkpt lat="59.7366009001" lon="30.8444294427">
        <ele>26.09</ele>
        <time>2026-05-03T00:03:04.000Z</time>
      </trkpt>
      <trkpt lat="59.7365848906" lon="30.8443908021">
        <ele>26.09</ele>
        <time>2026-05-03T00:03:10.000Z</time>
      </trkpt>
      <trkpt lat="59.736583801" lon="30.8443865273">
        <ele>26.09</ele>
        <time>2026-05-03T00:03:16.000Z</time>
      </trkpt>
      <trkpt lat="59.7365766764" lon="30.8443748765">
        <ele>26.09</ele>
        <time>2026-05-03T00:03:25.000Z</time>
      </trkpt>
      <trkpt lat="59.7365694679" lon="30.844369093">
        <ele>26.09</ele>
        <time>2026-05-03T00:03:33.000Z</time>
      </trkpt>
      <trkpt lat="59.7365728207" lon="30.8443638962">
        <ele>26.09</ele>
        <time>2026-05-03T00:03:42.000Z</time>
      </trkpt>
      <trkpt lat="59.7365610022" lon="30.8444099128">
        <ele>26.09</ele>
        <time>2026-05-03T00:03:47.000Z</time>
      </trkpt>
      <trkpt lat="59.7365582362" lon="30.8444013633">
        <ele>27.05</ele>
        <time>2026-05-03T00:03:58.000Z</time>
      </trkpt>
      <trkpt lat="59.7365551349" lon="30.8443965018">
        <ele>27.05</ele>
        <time>2026-05-03T00:04:11.000Z</time>
      </trkpt>
      <trkpt lat="59.7365571465" lon="30.8443935681">
        <ele>27.05</ele>
        <time>2026-05-03T00:04:23.000Z</time>
      </trkpt>
      <trkpt lat="59.7365523688" lon="30.8443918079">
        <ele>27.05</ele>
        <time>2026-05-03T00:04:34.000Z</time>
      </trkpt>
      <trkpt lat="59.7365484294" lon="30.8443844318">
        <ele>27.05</ele>
        <time>2026-05-03T00:04:46.000Z</time>
      </trkpt>
      <trkpt lat="59.736549519" lon="30.8443831746">
        <ele>27.05</ele>
        <time>2026-05-03T00:04:57.000Z</time>
      </trkpt>
      <trkpt lat="59.7365563922" lon="30.8443730325">
        <ele>27.05</ele>
        <time>2026-05-03T00:05:04.000Z</time>
      </trkpt>
      <trkpt lat="59.7365560569" lon="30.8443696797">
        <ele>27.05</ele>
        <time>2026-05-03T00:05:12.000Z</time>
      </trkpt>
      <trkpt lat="59.7365482617" lon="30.8443939872">
        <ele>27.05</ele>
        <time>2026-05-03T00:05:27.000Z</time>
      </trkpt>
      <trkpt lat="59.7365248762" lon="30.8443974238">
        <ele>27.05</ele>
        <time>2026-05-03T00:05:33.000Z</time>
      </trkpt>
      <trkpt lat="59.7365247924" lon="30.8443814982">
        <ele>27.05</ele>
        <time>2026-05-03T00:05:39.000Z</time>
      </trkpt>
      <trkpt lat="59.7365206853" lon="30.8443800732">
        <ele>27.05</ele>
        <time>2026-05-03T00:05:47.000Z</time>
      </trkpt>
      <trkpt lat="59.7365158238" lon="30.8443984296">
        <ele>27.05</ele>
        <time>2026-05-03T00:05:52.000Z</time>
      </trkpt>
    </trkseg>
  </trk>
</gpx>
